Innisfail, Queensland

8:35 AM AEST on September 20, 2014 (GMT +1000)
Innisfail Weather Live | Change Station
CLOSE
Current Station
Personal Weather Station
Location: INNISFAIL ESTATE, Queensland
Elevation: 26 ft
Nearby Weather Stations

Elev 26 ft 17.52 °S, 146.04 °E | Updated 15 seconds ago

Partly Cloudy
Partly Cloudy
73.8 °F
Feels Like 74 °F
N
0.0
Wind Variable Wind from NNE
Gusts 0.0 mph

Today
High -- | Low -- °F
--% Chance of Precip.
Yesterday
High -- | Low -- °F
Precip. -- in
6:07 AM 6:11 PM
Waning Crescent, 16% visible
Pressure 30.06 in
Visibility 6.2 miles
Clouds Few 2500 ft
Heat Index 74 °F
Dew Point 67 °F
Humidity 79%
Rainfall 0.00 in
Snow Depth Not available.
UV 2 out of 12
Pollen Not available.
Air Quality Not available.
Flu Activity Not available.
METAR YBCS 192200Z 14009KT 9999 FEW025 21/16 Q1018 RMK SMOME/HAZE TO S

More Conditions Fewer Conditions

Pressure 30.06 in
Visibility 6.2 miles
Clouds Few 2500 ft
Heat Index 74 °F
Dew Point 67 °F
Humidity 79%
Rainfall 0.00 in
Snow Depth Not available.
UV 2 out of 12
Pollen Not available.
Air Quality Not available.
Flu Activity Not available.
METAR YBCS 192200Z 14009KT 9999 FEW025 21/16 Q1018 RMK SMOME/HAZE TO S

More Conditions Fewer Conditions

10-Day Weather Forecast

Almanac

Astronomy

Sep. 20, 2014 Rise Set
Actual Time 6:07 AM AEST 6:11 PM AEST
Civil Twilight 5:46 AM AEST 6:33 PM AEST
Nautical Twilight 5:20 AM AEST 6:58 PM AEST
Astronomical Twilight 4:55 AM AEST 7:23 PM AEST
Moon 3:11 AM AEST (9/20) 2:58 PM AEST (9/20)
Length of Visible Light 12h 47m
Length of Day
12h 03m
Tomorrow will be 0m 59s longer.
Waning Crescent, 16% of the Moon is Illuminated
Sep 19
Waning Crescent
Sep 24
New
Oct 1
First Quarter
Oct 8
Full
Oct 15
Last Quarter

Yesterday's Extremes

Country Highs Country Lows

Community

WunderPhotos

Upload Photos

1,754,721 photos uploaded!

WunderBlogs® & News

By Dr. Jeff Masters
Director of Meteorology, Weather Underground
By Kari Strenfel
Meteorologist, Weather Underground
By Christopher C. Burt
Weather Historian, Weather Underground
September 19, 2014
September 19, 2014
September 19, 2014

Nearby

Snow Depth

Not available.

Earthquake Activity

City Distance Mag. Time & Date
No recent earthquake activity has been reported nearby.
Minimum magnitude displayed is 2.5.

Coastal Water Temperatures

Place Temperature
No Stations Reporting

Nearby Weather Stations